createdAt,value
2019-05-14T06:15:44.721Z,10.16
2019-05-14T06:16:29.749Z,10.14
2019-05-14T06:17:29.774Z,10.26
2019-05-14T06:18:29.780Z,10.39
2019-05-14T06:19:29.790Z,10.35
2019-05-14T06:20:29.797Z,10.49
2019-05-14T06:21:29.822Z,10.49
2019-05-14T06:22:29.813Z,10.62
2019-05-14T06:23:29.825Z,10.72
2019-05-14T06:24:29.905Z,10.84
2019-05-14T06:25:31.169Z,10.78
2019-05-14T06:26:29.852Z,10.90
2019-05-14T06:27:29.869Z,10.93
2019-05-14T06:28:33.295Z,10.90
2019-05-14T06:29:29.932Z,10.88
2019-05-14T06:30:29.906Z,10.94
2019-05-14T06:31:29.923Z,10.91
2019-05-14T06:32:29.930Z,10.93
2019-05-14T06:33:29.934Z,11.03
2019-05-14T06:34:29.959Z,11.11
2019-05-14T06:35:29.961Z,11.13
2019-05-14T06:36:29.972Z,11.39
2019-05-14T06:37:30.207Z,11.46
2019-05-14T06:38:30.042Z,11.56
2019-05-14T06:39:30.065Z,11.45
2019-05-14T06:40:30.023Z,11.54
2019-05-14T06:41:30.033Z,11.56
2019-05-14T06:42:30.047Z,11.63
2019-05-14T06:43:30.065Z,11.56
2019-05-14T06:44:30.075Z,11.54
2019-05-14T06:45:30.088Z,11.66
2019-05-14T06:46:30.109Z,11.60
2019-05-14T06:47:30.106Z,11.78
2019-05-14T06:48:34.346Z,11.78
2019-05-14T06:49:30.134Z,11.81
2019-05-14T06:50:30.151Z,11.93
2019-05-14T06:51:30.157Z,12.03
2019-05-14T06:52:30.171Z,12.07
2019-05-14T06:53:30.192Z,12.15
2019-05-14T06:54:30.194Z,12.13
2019-05-14T06:55:30.209Z,12.21
2019-05-14T06:56:30.225Z,12.25
2019-05-14T06:57:30.242Z,12.34
2019-05-14T06:58:30.252Z,12.44
2019-05-14T06:59:30.367Z,12.46
2019-05-14T07:00:30.270Z,12.52
2019-05-14T07:01:30.294Z,12.59
2019-05-14T07:02:30.306Z,12.59
2019-05-14T07:03:30.321Z,12.69
2019-05-14T07:04:30.338Z,12.70
2019-05-14T07:05:30.345Z,12.89
2019-05-14T07:06:30.354Z,13.04
2019-05-14T07:07:30.414Z,13.10
2019-05-14T07:08:30.382Z,13.19
2019-05-14T07:09:30.404Z,13.38
2019-05-14T07:10:30.422Z,13.44
2019-05-14T07:11:30.425Z,13.55
2019-05-14T07:12:30.442Z,13.57
2019-05-14T07:13:30.475Z,13.51
2019-05-14T07:14:30.548Z,13.53
2019-05-14T07:15:30.513Z,13.36
2019-05-14T07:16:30.503Z,13.43
2019-05-14T07:17:30.509Z,13.59
2019-05-14T07:18:45.734Z,13.66
2019-05-14T07:19:30.540Z,13.83
2019-05-14T07:20:30.565Z,14.04
2019-05-14T07:21:30.568Z,14.16
2019-05-14T07:22:30.590Z,14.38
2019-05-14T07:23:30.597Z,14.41
2019-05-14T07:24:30.609Z,14.29
2019-05-14T07:25:30.638Z,14.06
2019-05-14T07:26:30.655Z,14.17
2019-05-14T07:27:30.674Z,14.19
2019-05-14T07:28:30.681Z,14.21
2019-05-14T07:29:30.697Z,14.38
2019-05-14T07:30:30.708Z,14.48
2019-05-14T07:31:30.717Z,14.44
2019-05-14T07:32:30.736Z,14.48
2019-05-14T07:33:30.748Z,14.56
2019-05-14T07:34:30.789Z,14.71
2019-05-14T07:35:30.769Z,14.95
2019-05-14T07:36:30.797Z,14.98
2019-05-14T07:37:30.814Z,15.13
2019-05-14T07:38:30.824Z,15.09
2019-05-14T07:39:30.836Z,15.01
2019-05-14T07:40:30.857Z,14.95
2019-05-14T07:41:30.877Z,15.07
2019-05-14T07:42:30.885Z,15.04
2019-05-14T07:43:30.901Z,15.12
2019-05-14T07:44:30.919Z,14.87
2019-05-14T07:45:33.307Z,15.04
2019-05-14T07:46:30.950Z,15.00
2019-05-14T07:47:30.950Z,14.85
2019-05-14T07:48:30.974Z,14.83
2019-05-14T07:49:30.981Z,14.87
2019-05-14T07:50:31.008Z,14.83
2019-05-14T07:51:31.023Z,14.91
2019-05-14T07:52:31.040Z,15.09
2019-05-14T07:53:38.543Z,15.31
2019-05-14T07:54:31.072Z,15.64
2019-05-14T07:55:31.084Z,15.78
2019-05-14T07:56:31.097Z,16.01
2019-05-14T07:57:31.109Z,15.89
2019-05-14T07:58:31.124Z,15.91
2019-05-14T07:59:31.148Z,16.01
2019-05-14T08:00:31.160Z,15.95
2019-05-14T08:01:31.180Z,15.98
2019-05-14T08:02:31.195Z,15.99
2019-05-14T08:03:31.201Z,15.88
2019-05-14T08:04:31.226Z,15.96
2019-05-14T08:05:31.238Z,16.10
2019-05-14T08:06:31.248Z,16.29
2019-05-14T08:07:31.269Z,16.40
2019-05-14T08:08:31.297Z,16.51
2019-05-14T08:09:31.359Z,16.62
2019-05-14T08:10:31.318Z,16.66
2019-05-14T08:11:31.338Z,16.73
2019-05-14T08:12:31.351Z,16.78
2019-05-14T08:13:31.363Z,16.82
2019-05-14T08:14:42.103Z,16.78
2019-05-14T08:15:31.395Z,16.85
2019-05-14T08:16:31.515Z,16.65
2019-05-14T08:17:31.427Z,16.73
2019-05-14T08:18:31.449Z,17.00
2019-05-14T08:19:34.311Z,17.25
2019-05-14T08:20:31.473Z,17.33
2019-05-14T08:21:31.491Z,17.42
2019-05-14T08:22:31.513Z,17.32
2019-05-14T08:23:31.521Z,17.20
2019-05-14T08:24:31.551Z,17.20
2019-05-14T08:25:31.559Z,17.40
2019-05-14T08:26:31.587Z,17.46
2019-05-14T08:27:31.587Z,17.53
2019-05-14T08:28:31.606Z,17.51
2019-05-14T08:29:31.621Z,17.35
2019-05-14T08:30:31.638Z,17.51
2019-05-14T08:31:31.651Z,17.68
2019-05-14T08:32:31.682Z,17.70
2019-05-14T08:33:31.687Z,17.98
2019-05-14T08:34:32.396Z,18.38
2019-05-14T08:35:34.223Z,18.60
2019-05-14T08:36:31.735Z,18.75
2019-05-14T08:37:31.760Z,18.86
2019-05-14T08:38:31.764Z,18.94
2019-05-14T08:39:31.777Z,19.31
2019-05-14T08:40:31.798Z,19.27
2019-05-14T08:41:31.815Z,19.15
2019-05-14T08:42:34.100Z,19.16
2019-05-14T08:43:31.850Z,18.79
2019-05-14T08:44:31.869Z,18.46
2019-05-14T08:45:31.904Z,18.50
2019-05-14T08:46:31.900Z,18.72
2019-05-14T08:47:31.918Z,18.83
2019-05-14T08:48:31.944Z,19.17
2019-05-14T08:49:43.936Z,19.25
2019-05-14T08:50:31.962Z,19.46
2019-05-14T08:51:31.985Z,19.50
2019-05-14T08:52:31.998Z,19.64
2019-05-14T08:53:32.031Z,19.92
2019-05-14T08:54:32.051Z,20.12
2019-05-14T08:55:32.049Z,20.23
2019-05-14T08:56:32.065Z,20.13
2019-05-14T08:57:32.133Z,20.07
2019-05-14T08:58:32.093Z,20.17
2019-05-14T08:59:32.115Z,20.13
2019-05-14T09:00:32.135Z,19.97
2019-05-14T09:01:32.142Z,19.70
2019-05-14T09:02:32.168Z,19.57
2019-05-14T09:03:32.182Z,19.67
2019-05-14T09:04:32.202Z,19.85
2019-05-14T09:05:32.216Z,20.07
2019-05-14T09:06:32.239Z,19.90
2019-05-14T09:07:32.262Z,19.95
2019-05-14T09:08:32.257Z,19.87
2019-05-14T09:09:32.277Z,19.64
2019-05-14T09:10:32.296Z,19.46
2019-05-14T09:11:35.337Z,18.56
2019-05-14T09:12:32.330Z,18.23
2019-05-14T09:13:32.339Z,18.19
2019-05-14T09:14:32.358Z,18.44
2019-05-14T09:15:32.387Z,18.35
2019-05-14T09:16:45.917Z,18.47
2019-05-14T09:17:32.398Z,18.51
2019-05-14T09:18:32.415Z,18.39
2019-05-14T09:19:32.433Z,18.32
2019-05-14T09:21:32.455Z,18.60
2019-05-14T09:23:32.488Z,19.27
2019-05-14T09:24:32.497Z,19.71
2019-05-14T09:25:32.534Z,20.13
2019-05-14T09:26:32.537Z,20.30
2019-05-14T09:27:32.551Z,19.98
2019-05-14T09:28:32.559Z,19.78
2019-05-14T09:29:32.582Z,19.68
2019-05-14T09:30:32.593Z,19.23
2019-05-14T09:31:32.609Z,18.83
2019-05-14T09:32:32.632Z,18.84
2019-05-14T09:33:32.636Z,18.97
2019-05-14T09:34:32.653Z,18.96
2019-05-14T09:35:32.668Z,19.40
2019-05-14T09:36:32.678Z,19.85
2019-05-14T09:37:32.694Z,19.95
2019-05-14T09:38:32.706Z,20.04
2019-05-14T09:39:32.723Z,20.22
2019-05-14T09:40:32.744Z,20.41
2019-05-14T09:41:32.757Z,20.50
2019-05-14T09:42:32.770Z,20.38
2019-05-14T09:43:32.784Z,20.00
2019-05-14T09:44:32.797Z,19.78
2019-05-14T09:45:32.816Z,19.46
2019-05-14T09:46:32.832Z,18.87
2019-05-14T09:47:32.848Z,18.69
2019-05-14T09:48:32.852Z,18.59
2019-05-14T09:49:32.876Z,18.50
2019-05-14T09:50:32.887Z,18.54
2019-05-14T09:51:32.900Z,18.66
2019-05-14T09:52:32.917Z,18.69
2019-05-14T09:53:32.937Z,18.71
2019-05-14T09:54:32.941Z,18.69
2019-05-14T09:55:32.946Z,18.78
2019-05-14T09:56:33.048Z,19.06
2019-05-14T09:57:32.981Z,19.42
2019-05-14T09:58:32.993Z,19.90
2019-05-14T09:59:33.023Z,20.34
2019-05-14T10:00:33.025Z,20.79
2019-05-14T10:01:33.038Z,20.72
2019-05-14T10:02:33.056Z,21.15
2019-05-14T10:03:33.055Z,21.45
2019-05-14T10:04:33.126Z,21.58
2019-05-14T10:05:33.091Z,21.31
2019-05-14T10:06:33.100Z,21.06
2019-05-14T10:07:33.125Z,20.50
2019-05-14T10:08:33.138Z,19.87
2019-05-14T10:09:33.152Z,19.65
2019-05-14T10:10:33.170Z,19.49
2019-05-14T10:11:33.171Z,19.28
2019-05-14T10:12:33.187Z,18.91
2019-05-14T10:13:33.201Z,18.75
2019-05-14T10:14:33.234Z,18.65
2019-05-14T10:15:33.238Z,18.65
2019-05-14T10:16:33.247Z,18.91
2019-05-14T10:17:33.275Z,19.34
2019-05-14T10:18:33.276Z,20.00
2019-05-14T10:19:33.288Z,20.64
2019-05-14T10:20:41.086Z,21.13
2019-05-14T10:21:33.324Z,21.63
2019-05-14T10:22:33.328Z,21.90
2019-05-14T10:23:33.468Z,22.01
2019-05-14T10:25:33.369Z,22.06
2019-05-14T10:26:33.384Z,21.83
2019-05-14T10:27:33.398Z,21.37
2019-05-14T10:28:33.410Z,20.79
2019-05-14T10:29:33.444Z,20.40
2019-05-14T10:30:33.461Z,20.13
2019-05-14T10:31:33.470Z,19.78
2019-05-14T10:32:33.483Z,20.10
2019-05-14T10:33:33.493Z,20.60
2019-05-14T10:34:33.510Z,20.53
2019-05-14T10:35:33.524Z,21.01
2019-05-14T10:36:33.529Z,21.33
2019-05-14T10:37:33.555Z,21.73
2019-05-14T10:38:33.564Z,21.31
2019-05-14T10:39:33.582Z,21.24
2019-05-14T10:40:33.606Z,21.79
2019-05-14T10:41:33.615Z,22.41
2019-05-14T10:42:33.617Z,22.69
2019-05-14T10:43:33.634Z,23.09
2019-05-14T10:44:33.668Z,23.14
2019-05-14T10:45:33.671Z,23.77
2019-05-14T10:46:33.689Z,24.06
2019-05-14T10:47:33.707Z,24.46
2019-05-14T10:48:33.786Z,24.48
2019-05-14T10:49:33.730Z,23.84
2019-05-14T10:50:37.870Z,23.32
2019-05-14T10:51:33.758Z,22.54
2019-05-14T10:52:33.781Z,22.29
2019-05-14T10:53:33.812Z,21.58
2019-05-14T10:54:33.800Z,21.09
2019-05-14T10:55:33.856Z,20.42
2019-05-14T10:56:33.834Z,20.58
2019-05-14T10:57:33.861Z,21.67
2019-05-14T10:58:34.210Z,22.57
2019-05-14T10:59:33.912Z,23.09
2019-05-14T11:00:33.912Z,23.81
2019-05-14T11:01:33.914Z,24.02
2019-05-14T11:02:33.947Z,24.45
2019-05-14T11:03:33.930Z,24.90
2019-05-14T11:04:34.556Z,25.31
2019-05-14T11:05:33.959Z,25.81
2019-05-14T11:06:34.001Z,26.09
2019-05-14T11:07:34.019Z,25.27
2019-05-14T11:08:34.109Z,25.04
2019-05-14T11:09:34.035Z,24.71
2019-05-14T11:10:34.133Z,24.11
2019-05-14T11:11:34.151Z,23.71
2019-05-14T11:12:34.232Z,23.18
2019-05-14T11:13:34.288Z,22.49
2019-05-14T11:14:34.356Z,23.18
2019-05-14T11:15:34.414Z,23.96
2019-05-14T11:16:34.467Z,23.74
2019-05-14T11:17:34.297Z,23.25
2019-05-14T11:18:34.188Z,23.26
2019-05-14T11:19:34.303Z,24.12
2019-05-14T11:20:34.203Z,24.80
2019-05-14T11:21:34.214Z,24.82
2019-05-14T11:22:34.240Z,24.26
2019-05-14T11:23:34.267Z,23.84
2019-05-14T11:24:34.274Z,23.59
2019-05-14T11:25:34.277Z,24.27
2019-05-14T11:26:34.314Z,24.51
2019-05-14T11:27:34.320Z,25.08
2019-05-14T11:28:34.335Z,25.27
2019-05-14T11:29:34.345Z,25.91
2019-05-14T11:30:34.376Z,25.66
2019-05-14T11:31:34.516Z,25.61
2019-05-14T11:32:34.386Z,25.91
2019-05-14T11:33:34.407Z,26.44
2019-05-14T11:34:34.433Z,27.03
2019-05-14T11:35:34.449Z,27.03
2019-05-14T11:36:34.468Z,27.06
2019-05-14T11:37:34.497Z,26.94
2019-05-14T11:38:37.555Z,26.76
2019-05-14T11:39:34.509Z,26.78
2019-05-14T11:40:34.543Z,26.76
2019-05-14T11:41:34.539Z,26.32
2019-05-14T11:42:34.565Z,26.12
2019-05-14T11:43:34.571Z,26.53
2019-05-14T11:44:34.596Z,27.08
2019-05-14T11:45:34.620Z,27.52
2019-05-14T11:46:47.594Z,27.52
2019-05-14T11:47:34.655Z,26.98
2019-05-14T11:48:34.675Z,26.39
2019-05-14T11:49:34.704Z,25.51
2019-05-14T11:50:34.723Z,25.30
2019-05-14T11:51:58.946Z,24.83
2019-05-14T11:52:34.732Z,24.52
2019-05-14T11:53:34.791Z,25.12
2019-05-14T11:54:34.761Z,25.75
2019-05-14T11:55:34.776Z,26.35
2019-05-14T11:56:34.786Z,27.24
2019-05-14T11:57:34.818Z,27.76
2019-05-14T11:58:34.837Z,27.59
2019-05-14T11:59:34.847Z,27.87
2019-05-14T12:00:34.860Z,27.81
2019-05-14T12:01:34.878Z,28.39
2019-05-14T12:02:34.908Z,28.50
2019-05-14T12:03:34.966Z,28.13
2019-05-14T12:04:35.056Z,28.24
2019-05-14T12:05:34.996Z,28.39
2019-05-14T12:06:34.956Z,28.73
2019-05-14T12:07:34.987Z,28.45
2019-05-14T12:08:35.011Z,27.88
2019-05-14T12:09:35.673Z,27.25
2019-05-14T12:10:35.017Z,27.21
2019-05-14T12:11:35.043Z,27.53
2019-05-14T12:12:35.073Z,27.48
2019-05-14T12:13:35.073Z,27.30
2019-05-14T12:14:35.099Z,27.53
2019-05-14T12:15:35.110Z,28.24
2019-05-14T12:16:35.130Z,28.27
2019-05-14T12:17:35.145Z,28.64
2019-05-14T12:18:35.158Z,28.94
2019-05-14T12:19:35.208Z,28.94
2019-05-14T12:20:35.208Z,29.21
2019-05-14T12:21:35.215Z,28.98
2019-05-14T12:22:35.231Z,27.95
2019-05-14T12:23:35.256Z,26.98
2019-05-14T12:24:35.271Z,26.87
2019-05-14T12:25:35.397Z,27.12
2019-05-14T12:26:35.294Z,27.65
2019-05-14T12:27:35.322Z,28.18
2019-05-14T12:28:35.355Z,28.83
2019-05-14T12:29:35.356Z,29.47
2019-05-14T12:31:35.379Z,30.28
2019-05-14T12:32:35.422Z,29.88
2019-05-14T12:33:35.410Z,29.52
2019-05-14T12:34:35.431Z,28.50
2019-05-14T12:35:35.454Z,27.62
2019-05-14T12:36:35.503Z,27.50
2019-05-14T12:37:38.483Z,28.05
2019-05-14T12:38:35.509Z,28.73
2019-05-14T12:39:35.519Z,28.80
2019-05-14T12:40:38.099Z,29.17
2019-05-14T12:41:35.545Z,29.55
2019-05-14T12:42:35.576Z,29.88
2019-05-14T12:43:35.585Z,30.37
2019-05-14T12:44:40.044Z,30.37
2019-05-14T12:45:35.635Z,30.37
2019-05-14T12:46:35.638Z,30.32
2019-05-14T12:47:38.251Z,30.36
2019-05-14T12:48:38.667Z,30.67
2019-05-14T12:49:35.696Z,30.45
2019-05-14T12:50:35.713Z,30.38
2019-05-14T12:51:39.298Z,30.46
2019-05-14T12:52:35.752Z,30.82
2019-05-14T12:53:35.768Z,30.32
2019-05-14T12:54:38.448Z,30.25
2019-05-14T12:55:35.831Z,30.68
2019-05-14T12:56:38.788Z,30.83
2019-05-14T12:57:39.032Z,31.20
2019-05-14T12:58:42.899Z,31.27
2019-05-14T12:59:37.908Z,30.94
2019-05-14T13:00:35.885Z,30.98
2019-05-14T13:01:35.918Z,31.53
2019-05-14T13:02:35.926Z,31.75
2019-05-14T13:03:35.949Z,31.57
2019-05-14T13:04:35.965Z,31.46
2019-05-14T13:05:35.989Z,31.45
2019-05-14T13:06:36.002Z,31.28
2019-05-14T13:07:36.022Z,31.31
2019-05-14T13:08:38.398Z,31.50
2019-05-14T13:09:38.336Z,31.69
2019-05-14T13:10:38.416Z,31.76
2019-05-14T13:11:40.973Z,31.67
2019-05-14T13:12:38.763Z,31.38
2019-05-14T13:13:36.128Z,31.37
2019-05-14T13:14:36.152Z,31.47
2019-05-14T13:15:39.078Z,31.38
2019-05-14T13:16:36.197Z,30.26
2019-05-14T13:17:38.577Z,29.21
2019-05-14T13:18:38.745Z,28.33
2019-05-14T13:19:37.995Z,27.99
2019-05-14T13:20:38.710Z,27.39
2019-05-14T13:21:38.749Z,26.59
2019-05-14T13:22:42.427Z,26.06
2019-05-14T13:23:38.387Z,26.68
2019-05-14T13:24:39.450Z,27.50
2019-05-14T13:25:39.137Z,28.36
2019-05-14T13:26:38.815Z,29.48
2019-05-14T13:27:38.954Z,29.78
2019-05-14T13:28:39.280Z,29.73
2019-05-14T13:29:36.411Z,29.17
2019-05-14T13:30:36.428Z,28.55
2019-05-14T13:31:36.518Z,28.79
2019-05-14T13:32:39.053Z,28.18
2019-05-14T13:33:39.029Z,26.98
2019-05-14T13:34:39.368Z,26.06
2019-05-14T13:35:38.869Z,24.87
2019-05-14T13:36:39.503Z,24.59
2019-05-14T13:37:39.550Z,25.31
2019-05-14T13:38:39.331Z,25.53
2019-05-14T13:39:39.584Z,26.79
2019-05-14T13:40:39.002Z,27.40
2019-05-14T13:41:41.561Z,27.88
2019-05-14T13:42:39.385Z,28.91
2019-05-14T13:43:39.117Z,29.58
2019-05-14T13:44:38.489Z,30.07
2019-05-14T13:45:39.049Z,30.60
2019-05-14T13:46:36.696Z,30.72
2019-05-14T13:47:38.727Z,31.20
2019-05-14T13:48:42.729Z,31.34
2019-05-14T13:49:39.115Z,31.31
2019-05-14T13:50:39.534Z,31.03
2019-05-14T13:51:38.765Z,31.57
2019-05-14T13:52:40.415Z,31.22
2019-05-14T13:53:39.085Z,30.06
2019-05-14T13:54:39.153Z,28.92
2019-05-14T13:55:44.228Z,28.06
2019-05-14T13:56:38.885Z,27.15
2019-05-14T13:57:39.816Z,26.64
2019-05-14T13:58:36.890Z,26.09
2019-05-14T13:59:43.780Z,25.34
2019-05-14T14:00:36.911Z,24.87
2019-05-14T14:01:36.974Z,24.27
2019-05-14T14:02:36.975Z,24.04
2019-05-14T14:03:47.003Z,24.14
2019-05-14T14:04:38.185Z,25.61
2019-05-14T14:05:39.243Z,26.79
2019-05-14T14:06:39.385Z,28.02
2019-05-14T14:07:39.469Z,28.48
2019-05-14T14:08:41.894Z,29.11
2019-05-14T14:09:39.549Z,29.66
2019-05-14T14:10:44.518Z,30.48
2019-05-14T14:11:38.343Z,31.18
2019-05-14T14:12:39.923Z,31.40
2019-05-14T14:13:39.191Z,31.40
2019-05-14T14:14:38.588Z,30.88
2019-05-14T14:15:38.420Z,31.15
2019-05-14T14:16:39.543Z,31.16
2019-05-14T14:17:39.185Z,31.45
2019-05-14T14:18:39.457Z,30.98
2019-05-14T14:19:38.853Z,29.70
2019-05-14T14:20:39.423Z,29.74
2019-05-14T14:21:39.750Z,29.71
2019-05-14T14:22:40.041Z,30.26
2019-05-14T14:23:39.237Z,30.45
2019-05-14T14:24:38.656Z,30.79
2019-05-14T14:25:39.466Z,30.11
2019-05-14T14:26:39.333Z,29.82
2019-05-14T14:27:40.659Z,30.03
2019-05-14T14:28:39.661Z,30.86
2019-05-14T14:29:39.542Z,31.05
2019-05-14T14:30:39.452Z,30.72
2019-05-14T14:31:41.418Z,31.40
2019-05-14T14:32:40.210Z,32.07
2019-05-14T14:33:39.120Z,32.16
2019-05-14T14:34:41.253Z,30.67
2019-05-14T14:35:38.773Z,30.00
2019-05-14T14:36:38.640Z,28.35
2019-05-14T14:37:39.673Z,28.54
2019-05-14T14:38:40.038Z,28.25
2019-05-14T14:39:37.581Z,28.25
2019-05-14T14:40:39.606Z,28.48
2019-05-14T14:41:38.421Z,28.80
2019-05-14T14:42:40.106Z,29.17
2019-05-14T14:43:42.813Z,29.71
2019-05-14T14:44:39.310Z,30.28
2019-05-14T14:45:44.714Z,30.75
2019-05-14T14:46:39.205Z,31.00
2019-05-14T14:47:39.360Z,31.22
2019-05-14T14:48:39.619Z,31.53
2019-05-14T14:49:43.429Z,31.20
2019-05-14T14:51:44.089Z,31.92
2019-05-14T14:52:37.814Z,32.32
2019-05-14T14:53:51.980Z,32.05
2019-05-14T14:54:38.235Z,31.47
2019-05-14T14:55:39.934Z,30.64
2019-05-14T14:56:38.060Z,30.88
2019-05-14T14:57:44.545Z,30.53
2019-05-14T14:58:39.156Z,29.64
2019-05-14T14:59:39.082Z,28.30
2019-05-14T15:00:38.144Z,28.36
2019-05-14T15:01:40.348Z,28.36
2019-05-14T15:02:40.789Z,27.83
2019-05-14T15:03:37.967Z,27.11
2019-05-14T15:04:39.588Z,26.50
2019-05-14T15:05:38.979Z,25.48
2019-05-14T15:06:39.729Z,25.91
2019-05-14T15:07:40.749Z,26.83
2019-05-14T15:08:38.990Z,27.55
2019-05-14T15:09:40.471Z,28.13
2019-05-14T15:10:39.471Z,28.52
2019-05-14T15:11:39.704Z,28.54
2019-05-14T15:12:40.030Z,28.57
2019-05-14T15:13:39.101Z,28.11
2019-05-14T15:14:39.545Z,28.25
2019-05-14T15:15:39.370Z,28.45
2019-05-14T15:16:39.053Z,28.54
2019-05-14T15:17:39.284Z,27.93
2019-05-14T15:18:38.747Z,27.62
2019-05-14T15:19:39.528Z,27.58
2019-05-14T15:20:38.242Z,27.52
2019-05-14T15:21:38.273Z,27.59
2019-05-14T15:22:38.304Z,27.50
2019-05-14T15:23:42.980Z,27.16
2019-05-14T15:24:38.307Z,27.15
2019-05-14T15:25:38.402Z,26.93
2019-05-14T15:26:38.391Z,26.78
2019-05-14T15:27:38.754Z,26.34
2019-05-14T15:28:38.758Z,25.81
2019-05-14T15:29:39.774Z,25.26
2019-05-14T15:30:39.541Z,24.74
2019-05-14T15:31:38.665Z,24.05
2019-05-14T15:32:38.445Z,23.78
2019-05-14T15:33:38.460Z,23.25
2019-05-14T15:34:38.482Z,22.88
2019-05-14T15:35:38.484Z,22.57
2019-05-14T15:36:41.300Z,22.67
2019-05-14T15:37:42.240Z,22.76
2019-05-14T15:38:39.606Z,22.75
2019-05-14T15:39:39.061Z,22.36
2019-05-14T15:40:40.059Z,22.35
2019-05-14T15:41:39.542Z,22.36
2019-05-14T15:42:39.517Z,22.45
2019-05-14T15:43:39.540Z,22.45
2019-05-14T15:44:48.836Z,22.41
2019-05-14T15:45:38.633Z,22.20
2019-05-14T15:46:41.787Z,22.05
2019-05-14T15:48:39.493Z,21.37
2019-05-14T15:49:38.987Z,21.15
2019-05-14T15:50:39.081Z,21.06
2019-05-14T15:51:39.784Z,21.21
2019-05-14T15:52:39.671Z,21.24
2019-05-14T15:53:38.864Z,21.09
2019-05-14T15:54:46.308Z,21.16
2019-05-14T15:55:38.773Z,21.24
2019-05-14T15:56:39.477Z,21.31
2019-05-14T15:57:39.770Z,21.27
2019-05-14T15:58:39.182Z,21.26
2019-05-14T15:59:39.249Z,21.27
2019-05-14T16:00:38.893Z,21.27
2019-05-14T16:01:39.773Z,21.43
2019-05-14T16:02:39.748Z,21.49
2019-05-14T16:03:41.407Z,21.58
2019-05-14T16:05:39.541Z,21.09
2019-05-14T16:06:38.932Z,20.97
2019-05-14T16:07:39.324Z,20.94
2019-05-14T16:08:40.112Z,20.96
2019-05-14T16:09:39.728Z,20.96
2019-05-14T16:10:39.793Z,20.85
2019-05-14T16:11:39.426Z,20.63
2019-05-14T16:12:39.758Z,20.61
2019-05-14T16:13:39.873Z,20.54
2019-05-14T16:14:39.061Z,20.48
2019-05-14T16:15:39.127Z,20.56
2019-05-14T16:16:39.316Z,20.53
2019-05-14T16:17:47.543Z,20.50
2019-05-14T16:18:39.062Z,20.50
2019-05-14T16:20:39.417Z,20.50
2019-05-14T16:21:39.111Z,20.50
2019-05-14T16:22:40.128Z,20.40
2019-05-14T16:23:39.139Z,20.35
2019-05-14T16:24:53.145Z,20.38
2019-05-14T16:25:39.146Z,20.51
2019-05-14T16:26:39.157Z,20.51
2019-05-14T16:27:39.805Z,20.30
2019-05-14T16:28:39.812Z,20.38
2019-05-14T16:29:45.495Z,20.34
2019-05-14T16:30:39.849Z,20.48
2019-05-14T16:31:43.474Z,20.51
2019-05-14T16:32:39.662Z,20.50
2019-05-14T16:33:40.404Z,20.31
2019-05-14T16:34:40.996Z,20.31
2019-05-14T16:35:39.404Z,20.26
2019-05-14T16:36:41.175Z,20.23
2019-05-14T16:37:40.124Z,20.12
2019-05-14T16:39:58.324Z,20.15
2019-05-14T16:49:51.866Z,20.13
2019-05-14T16:50:51.889Z,20.19
2019-05-14T16:51:51.892Z,20.04
2019-05-14T16:52:51.896Z,20.05
2019-05-14T16:53:51.913Z,20.13
2019-05-14T16:54:51.940Z,20.16
2019-05-14T16:55:51.934Z,20.20
2019-05-14T16:56:51.949Z,20.20
2019-05-14T16:57:51.989Z,20.26
2019-05-14T16:58:51.969Z,20.25
2019-05-14T16:59:51.992Z,20.12
2019-05-14T17:00:51.993Z,20.10
2019-05-14T17:01:52.008Z,19.87
2019-05-14T17:02:52.006Z,19.87
2019-05-14T17:03:52.029Z,19.80
2019-05-14T17:04:52.035Z,19.80
2019-05-14T17:05:52.049Z,19.65
2019-05-14T17:06:52.057Z,19.64
2019-05-14T17:07:52.074Z,19.57
2019-05-14T17:08:52.093Z,19.47
2019-05-14T17:09:52.093Z,19.45
2019-05-14T17:10:52.103Z,19.43
2019-05-14T17:11:52.109Z,19.45
2019-05-14T17:12:57.267Z,19.38
2019-05-14T17:13:52.133Z,19.45
2019-05-14T17:14:52.142Z,19.39
2019-05-14T17:15:52.148Z,19.23
2019-05-14T17:16:52.167Z,19.21
2019-05-14T17:17:52.177Z,19.05
2019-05-14T17:18:52.195Z,18.93
2019-05-14T17:19:52.196Z,18.94
2019-05-14T17:20:52.206Z,18.96
2019-05-14T17:21:52.230Z,18.91
2019-05-14T17:22:52.227Z,18.93
2019-05-14T17:23:52.254Z,18.96
2019-05-14T17:24:52.259Z,19.13
2019-05-14T17:25:52.265Z,19.13
2019-05-14T17:26:52.275Z,19.10
2019-05-14T17:27:52.279Z,18.91
2019-05-14T17:28:52.293Z,18.72
2019-05-14T17:29:52.310Z,18.66
2019-05-14T17:30:52.312Z,18.60
2019-05-14T17:31:52.323Z,18.59
2019-05-14T17:32:52.338Z,18.53
2019-05-14T17:33:52.348Z,18.51
2019-05-14T17:34:52.353Z,18.47
2019-05-14T17:35:52.368Z,18.44
2019-05-14T17:36:52.374Z,18.44
2019-05-14T17:37:52.389Z,18.51
2019-05-14T17:38:52.407Z,18.41
2019-05-14T17:39:52.411Z,18.44
2019-05-14T17:40:52.418Z,18.36
2019-05-14T17:41:52.424Z,18.42
2019-05-14T17:42:52.439Z,18.50
2019-05-14T17:43:52.461Z,18.49
2019-05-14T17:44:52.462Z,18.38
2019-05-14T17:45:52.476Z,18.41
2019-05-14T17:46:52.474Z,18.39
2019-05-14T17:47:52.501Z,18.42
2019-05-14T17:48:52.522Z,18.49
2019-05-14T17:49:52.514Z,18.42
2019-05-14T17:50:52.524Z,18.44
2019-05-14T17:51:52.618Z,18.53
2019-05-14T17:52:56.498Z,18.56
2019-05-14T17:53:52.555Z,18.56
2019-05-14T17:55:52.609Z,18.68
2019-05-14T17:56:52.605Z,18.57
2019-05-14T17:57:58.437Z,18.53
2019-05-14T17:58:52.604Z,18.47
2019-05-14T17:59:52.619Z,18.41
2019-05-14T18:00:52.624Z,18.29
2019-05-14T18:01:52.632Z,18.20
2019-05-14T18:02:52.650Z,18.25
2019-05-14T18:03:52.654Z,18.29
2019-05-14T18:04:56.157Z,18.28
2019-05-14T18:05:52.672Z,18.25
2019-05-14T18:06:52.690Z,18.34
2019-05-14T18:07:52.695Z,18.31
2019-05-14T18:08:52.702Z,18.17
2019-05-14T18:09:52.717Z,18.23
2019-05-14T18:10:52.726Z,18.13
2019-05-14T18:11:52.753Z,18.19
2019-05-14T18:12:52.743Z,18.09
2019-05-14T18:13:52.757Z,18.09
2019-05-14T18:14:52.765Z,18.17
2019-05-14T18:15:52.778Z,18.10
2019-05-14T18:16:52.792Z,17.98
2019-05-14T18:17:52.802Z,18.04
2019-05-14T18:18:52.811Z,17.91
2019-05-14T18:19:52.815Z,17.91
2019-05-14T18:20:52.829Z,17.74
2019-05-14T18:21:52.839Z,17.94
2019-05-14T18:22:52.850Z,17.89
2019-05-14T18:23:52.908Z,17.83
2019-05-14T18:24:52.864Z,17.74
2019-05-14T18:26:04.745Z,17.66
2019-05-14T18:26:52.886Z,17.66
2019-05-14T18:27:52.895Z,17.54
2019-05-14T18:28:52.898Z,17.46
2019-05-14T18:30:52.920Z,17.63
2019-05-14T18:31:54.555Z,17.51
2019-05-14T18:32:52.940Z,17.66
2019-05-14T18:33:52.948Z,17.65
2019-05-14T18:34:52.956Z,17.54
2019-05-14T18:35:52.973Z,17.43
2019-05-14T18:36:52.983Z,17.40
2019-05-14T18:37:52.993Z,17.42
2019-05-14T18:38:52.998Z,17.42
2019-05-14T18:39:53.015Z,17.32
2019-05-14T18:40:53.063Z,17.24
2019-05-14T18:41:53.037Z,17.21
2019-05-14T18:42:53.040Z,17.22
2019-05-14T18:43:53.062Z,17.17
2019-05-14T18:44:53.058Z,17.15
2019-05-14T18:45:53.071Z,17.17
2019-05-14T18:46:53.075Z,17.17
2019-05-14T18:47:53.085Z,17.25
2019-05-14T18:48:53.101Z,17.10
2019-05-14T18:49:53.109Z,17.09
2019-05-14T18:50:53.117Z,17.00
2019-05-14T18:51:53.128Z,17.03
2019-05-14T18:52:53.133Z,16.88
2019-05-14T18:53:53.150Z,16.92
2019-05-14T18:54:53.143Z,16.81
2019-05-14T18:55:53.157Z,16.88
2019-05-14T18:56:53.175Z,16.80
2019-05-14T18:57:53.174Z,16.77
2019-05-14T18:58:53.188Z,16.78
2019-05-14T18:59:53.201Z,16.66
2019-05-14T19:00:53.213Z,16.70
2019-05-14T19:01:54.072Z,16.67
2019-05-14T19:02:53.219Z,16.63
2019-05-14T19:03:53.238Z,16.55
2019-05-14T19:04:53.250Z,16.62
2019-05-14T19:05:53.267Z,16.52
2019-05-14T19:06:53.262Z,16.51
2019-05-14T19:07:53.277Z,16.54
2019-05-14T19:08:53.290Z,16.51
2019-05-14T19:09:53.286Z,16.59
2019-05-14T19:10:53.306Z,16.47
2019-05-14T19:11:53.306Z,16.51
2019-05-14T19:12:53.313Z,16.42
2019-05-14T19:13:53.329Z,16.34
2019-05-14T19:14:53.331Z,16.50
2019-05-14T19:15:53.344Z,16.45
2019-05-14T19:16:53.360Z,16.32
2019-05-14T19:17:53.358Z,16.44
2019-05-14T19:18:53.375Z,16.29
2019-05-14T19:19:53.380Z,16.22
2019-05-14T19:20:53.390Z,16.23
2019-05-14T19:21:53.395Z,16.16
2019-05-14T19:22:53.415Z,16.03
2019-05-14T19:23:53.503Z,16.14
2019-05-14T19:24:53.427Z,16.04
2019-05-14T19:25:53.446Z,15.89
2019-05-14T19:26:53.501Z,16.03
2019-05-14T19:27:53.446Z,15.92